sensor_id;sensor_type;location;lat;lon;timestamp;P1;durP1;ratioP1;P2;durP2;ratioP2
48268;SDS011;34088;52.232;5.196;2024-03-22T00:04:09;61.50;;;37.17;;
48268;SDS011;34088;52.232;5.196;2024-03-22T00:09:00;60.77;;;39.07;;
48268;SDS011;34088;52.232;5.196;2024-03-22T00:13:50;66.30;;;38.80;;
48268;SDS011;34088;52.232;5.196;2024-03-22T00:18:41;63.20;;;38.88;;
48268;SDS011;34088;52.232;5.196;2024-03-22T00:33:08;70.87;;;41.53;;
48268;SDS011;34088;52.232;5.196;2024-03-22T00:37:58;67.27;;;40.47;;
48268;SDS011;34088;52.232;5.196;2024-03-22T00:42:49;71.73;;;40.60;;
48268;SDS011;34088;52.232;5.196;2024-03-22T00:47:39;67.53;;;38.40;;
48268;SDS011;34088;52.232;5.196;2024-03-22T00:52:30;74.47;;;40.53;;
48268;SDS011;34088;52.232;5.196;2024-03-22T00:57:21;70.10;;;40.17;;
48268;SDS011;34088;52.232;5.196;2024-03-22T01:02:12;70.10;;;40.13;;
48268;SDS011;34088;52.232;5.196;2024-03-22T01:07:02;69.00;;;38.57;;
48268;SDS011;34088;52.232;5.196;2024-03-22T01:11:53;65.68;;;38.22;;
48268;SDS011;34088;52.232;5.196;2024-03-22T01:16:44;71.80;;;39.57;;
48268;SDS011;34088;52.232;5.196;2024-03-22T01:21:34;66.37;;;37.63;;
48268;SDS011;34088;52.232;5.196;2024-03-22T01:24:00;64.32;;;37.15;;
48268;SDS011;34088;52.232;5.196;2024-03-22T01:28:51;69.70;;;37.50;;
48268;SDS011;34088;52.232;5.196;2024-03-22T01:33:41;69.60;;;38.53;;
48268;SDS011;34088;52.232;5.196;2024-03-22T01:38:32;73.72;;;38.60;;
48268;SDS011;34088;52.232;5.196;2024-03-22T01:43:22;65.80;;;36.87;;
48268;SDS011;34088;52.232;5.196;2024-03-22T01:48:13;72.75;;;38.90;;
48268;SDS011;34088;52.232;5.196;2024-03-22T01:53:04;65.05;;;37.10;;
48268;SDS011;34088;52.232;5.196;2024-03-22T01:57:55;67.40;;;37.00;;
48268;SDS011;34088;52.232;5.196;2024-03-22T02:02:46;71.70;;;37.35;;
48268;SDS011;34088;52.232;5.196;2024-03-22T02:07:41;70.32;;;37.63;;
48268;SDS011;34088;52.232;5.196;2024-03-22T02:12:33;74.68;;;38.28;;
48268;SDS011;34088;52.232;5.196;2024-03-22T02:17:24;76.72;;;39.90;;
48268;SDS011;34088;52.232;5.196;2024-03-22T02:22:14;81.82;;;40.22;;
48268;SDS011;34088;52.232;5.196;2024-03-22T02:27:05;78.87;;;39.77;;
48268;SDS011;34088;52.232;5.196;2024-03-22T02:31:55;81.50;;;41.83;;
48268;SDS011;34088;52.232;5.196;2024-03-22T02:34:23;83.72;;;41.70;;
48268;SDS011;34088;52.232;5.196;2024-03-22T02:39:13;84.57;;;42.42;;
48268;SDS011;34088;52.232;5.196;2024-03-22T02:44:04;84.03;;;43.57;;
48268;SDS011;34088;52.232;5.196;2024-03-22T02:48:55;79.00;;;39.05;;
48268;SDS011;34088;52.232;5.196;2024-03-22T02:53:45;77.85;;;40.00;;
48268;SDS011;34088;52.232;5.196;2024-03-22T02:58:36;72.37;;;37.40;;
48268;SDS011;34088;52.232;5.196;2024-03-22T03:03:28;76.97;;;39.05;;
48268;SDS011;34088;52.232;5.196;2024-03-22T03:08:19;72.40;;;37.38;;
48268;SDS011;34088;52.232;5.196;2024-03-22T03:13:10;72.53;;;36.97;;
48268;SDS011;34088;52.232;5.196;2024-03-22T03:18:00;73.57;;;36.07;;
48268;SDS011;34088;52.232;5.196;2024-03-22T03:22:51;77.90;;;39.90;;
48268;SDS011;34088;52.232;5.196;2024-03-22T03:27:42;84.17;;;43.40;;
48268;SDS011;34088;52.232;5.196;2024-03-22T03:32:33;76.75;;;40.97;;
48268;SDS011;34088;52.232;5.196;2024-03-22T03:37:23;68.25;;;37.25;;
48268;SDS011;34088;52.232;5.196;2024-03-22T03:42:14;66.53;;;35.83;;
48268;SDS011;34088;52.232;5.196;2024-03-22T03:47:05;68.80;;;36.30;;
48268;SDS011;34088;52.232;5.196;2024-03-22T03:51:55;70.20;;;37.63;;
48268;SDS011;34088;52.232;5.196;2024-03-22T03:54:21;72.95;;;38.28;;
48268;SDS011;34088;52.232;5.196;2024-03-22T03:59:11;68.53;;;37.77;;
48268;SDS011;34088;52.232;5.196;2024-03-22T04:01:36;71.20;;;38.77;;
48268;SDS011;34088;52.232;5.196;2024-03-22T04:06:27;63.08;;;35.22;;
48268;SDS011;34088;52.232;5.196;2024-03-22T04:11:18;64.73;;;34.57;;
48268;SDS011;34088;52.232;5.196;2024-03-22T04:13:43;66.18;;;36.30;;
48268;SDS011;34088;52.232;5.196;2024-03-22T04:18:33;63.60;;;34.67;;
48268;SDS011;34088;52.232;5.196;2024-03-22T04:20:59;65.27;;;35.37;;
48268;SDS011;34088;52.232;5.196;2024-03-22T04:25:54;63.05;;;33.47;;
48268;SDS011;34088;52.232;5.196;2024-03-22T04:28:25;60.53;;;32.45;;
48268;SDS011;34088;52.232;5.196;2024-03-22T04:31:02;60.83;;;31.48;;
48268;SDS011;34088;52.232;5.196;2024-03-22T04:33:29;67.03;;;33.75;;
48268;SDS011;34088;52.232;5.196;2024-03-22T04:35:55;53.80;;;31.20;;
48268;SDS011;34088;52.232;5.196;2024-03-22T04:40:47;52.13;;;29.75;;
48268;SDS011;34088;52.232;5.196;2024-03-22T04:43:12;54.87;;;28.33;;
48268;SDS011;34088;52.232;5.196;2024-03-22T04:48:03;55.92;;;29.38;;
48268;SDS011;34088;52.232;5.196;2024-03-22T04:50:30;55.90;;;28.88;;
48268;SDS011;34088;52.232;5.196;2024-03-22T04:55:21;51.37;;;28.70;;
48268;SDS011;34088;52.232;5.196;2024-03-22T05:00:11;56.50;;;27.40;;
48268;SDS011;34088;52.232;5.196;2024-03-22T05:02:37;61.40;;;28.73;;
48268;SDS011;34088;52.232;5.196;2024-03-22T05:07:28;50.35;;;26.85;;
48268;SDS011;34088;52.232;5.196;2024-03-22T05:12:18;53.92;;;24.90;;
48268;SDS011;34088;52.232;5.196;2024-03-22T05:17:09;42.30;;;22.80;;
48268;SDS011;34088;52.232;5.196;2024-03-22T05:21:59;43.57;;;22.47;;
48268;SDS011;34088;52.232;5.196;2024-03-22T05:24:25;48.17;;;23.73;;
48268;SDS011;34088;52.232;5.196;2024-03-22T05:29:15;50.20;;;24.20;;
48268;SDS011;34088;52.232;5.196;2024-03-22T05:34:13;45.28;;;21.58;;
48268;SDS011;34088;52.232;5.196;2024-03-22T05:36:39;48.17;;;21.42;;
48268;SDS011;34088;52.232;5.196;2024-03-22T05:41:30;44.63;;;19.90;;
48268;SDS011;34088;52.232;5.196;2024-03-22T05:46:20;40.87;;;20.70;;
48268;SDS011;34088;52.232;5.196;2024-03-22T05:51:11;44.90;;;20.92;;
48268;SDS011;34088;52.232;5.196;2024-03-22T05:56:01;40.47;;;21.67;;
48268;SDS011;34088;52.232;5.196;2024-03-22T06:00:52;49.63;;;20.93;;
48268;SDS011;34088;52.232;5.196;2024-03-22T06:03:18;40.40;;;20.58;;
48268;SDS011;34088;52.232;5.196;2024-03-22T06:08:09;45.10;;;21.52;;
48268;SDS011;34088;52.232;5.196;2024-03-22T06:12:59;44.47;;;20.70;;
48268;SDS011;34088;52.232;5.196;2024-03-22T06:15:25;46.03;;;19.30;;
48268;SDS011;34088;52.232;5.196;2024-03-22T06:17:50;44.60;;;20.42;;
48268;SDS011;34088;52.232;5.196;2024-03-22T06:22:41;37.35;;;18.38;;
48268;SDS011;34088;52.232;5.196;2024-03-22T06:27:31;38.57;;;18.67;;
48268;SDS011;34088;52.232;5.196;2024-03-22T06:29:57;40.10;;;18.53;;
48268;SDS011;34088;52.232;5.196;2024-03-22T06:32:22;39.88;;;18.77;;
48268;SDS011;34088;52.232;5.196;2024-03-22T06:37:12;44.27;;;18.07;;
48268;SDS011;34088;52.232;5.196;2024-03-22T06:42:03;42.60;;;18.00;;
48268;SDS011;34088;52.232;5.196;2024-03-22T06:44:28;37.63;;;17.10;;
48268;SDS011;34088;52.232;5.196;2024-03-22T06:49:19;38.60;;;17.83;;
48268;SDS011;34088;52.232;5.196;2024-03-22T06:54:09;34.87;;;17.07;;
48268;SDS011;34088;52.232;5.196;2024-03-22T06:59:00;39.83;;;17.52;;
48268;SDS011;34088;52.232;5.196;2024-03-22T07:03:50;46.00;;;18.73;;
48268;SDS011;34088;52.232;5.196;2024-03-22T07:06:17;40.97;;;19.13;;
48268;SDS011;34088;52.232;5.196;2024-03-22T07:11:07;43.77;;;19.40;;
48268;SDS011;34088;52.232;5.196;2024-03-22T07:15:58;41.85;;;19.73;;
48268;SDS011;34088;52.232;5.196;2024-03-22T07:20:49;47.60;;;19.67;;
48268;SDS011;34088;52.232;5.196;2024-03-22T07:25:40;40.90;;;19.02;;
48268;SDS011;34088;52.232;5.196;2024-03-22T07:28:07;42.55;;;19.33;;
48268;SDS011;34088;52.232;5.196;2024-03-22T07:32:58;38.13;;;19.03;;
48268;SDS011;34088;52.232;5.196;2024-03-22T07:37:50;45.42;;;20.58;;
48268;SDS011;34088;52.232;5.196;2024-03-22T07:42:40;46.70;;;20.15;;
48268;SDS011;34088;52.232;5.196;2024-03-22T07:47:31;41.75;;;19.92;;
48268;SDS011;34088;52.232;5.196;2024-03-22T07:49:57;40.38;;;19.45;;
48268;SDS011;34088;52.232;5.196;2024-03-22T07:54:49;45.23;;;19.50;;
48268;SDS011;34088;52.232;5.196;2024-03-22T07:57:14;52.90;;;20.43;;
48268;SDS011;34088;52.232;5.196;2024-03-22T08:02:05;46.97;;;18.63;;
48268;SDS011;34088;52.232;5.196;2024-03-22T08:06:55;50.20;;;18.23;;
48268;SDS011;34088;52.232;5.196;2024-03-22T08:11:47;47.08;;;18.05;;
48268;SDS011;34088;52.232;5.196;2024-03-22T08:16:38;37.27;;;17.80;;
48268;SDS011;34088;52.232;5.196;2024-03-22T08:21:28;34.27;;;16.33;;
48268;SDS011;34088;52.232;5.196;2024-03-22T08:26:19;35.90;;;16.47;;
48268;SDS011;34088;52.232;5.196;2024-03-22T08:31:09;40.60;;;16.75;;
48268;SDS011;34088;52.232;5.196;2024-03-22T08:36:00;39.25;;;16.63;;
48268;SDS011;34088;52.232;5.196;2024-03-22T08:40:52;37.90;;;16.10;;
48268;SDS011;34088;52.232;5.196;2024-03-22T08:45:42;34.67;;;16.13;;
48268;SDS011;34088;52.232;5.196;2024-03-22T08:50:33;37.30;;;16.93;;
48268;SDS011;34088;52.232;5.196;2024-03-22T08:52:59;42.00;;;17.45;;
48268;SDS011;34088;52.232;5.196;2024-03-22T08:55:28;36.85;;;17.42;;
48268;SDS011;34088;52.232;5.196;2024-03-22T09:00:18;40.60;;;16.60;;
48268;SDS011;34088;52.232;5.196;2024-03-22T09:05:09;40.70;;;18.27;;
48268;SDS011;34088;52.232;5.196;2024-03-22T09:07:36;44.30;;;18.92;;
48268;SDS011;34088;52.232;5.196;2024-03-22T09:12:26;40.10;;;18.38;;
48268;SDS011;34088;52.232;5.196;2024-03-22T09:17:18;35.33;;;16.73;;
48268;SDS011;34088;52.232;5.196;2024-03-22T09:19:43;38.10;;;17.57;;
48268;SDS011;34088;52.232;5.196;2024-03-22T09:24:33;37.80;;;17.77;;
48268;SDS011;34088;52.232;5.196;2024-03-22T09:26:59;32.13;;;17.17;;
48268;SDS011;34088;52.232;5.196;2024-03-22T09:31:49;33.13;;;16.75;;
48268;SDS011;34088;52.232;5.196;2024-03-22T09:36:41;42.40;;;17.08;;
48268;SDS011;34088;52.232;5.196;2024-03-22T09:41:33;32.90;;;16.05;;
48268;SDS011;34088;52.232;5.196;2024-03-22T09:44:02;40.67;;;18.92;;
48268;SDS011;34088;52.232;5.196;2024-03-22T09:46:30;29.45;;;16.77;;
48268;SDS011;34088;52.232;5.196;2024-03-22T09:51:22;31.58;;;16.73;;
48268;SDS011;34088;52.232;5.196;2024-03-22T09:53:49;30.45;;;17.25;;
48268;SDS011;34088;52.232;5.196;2024-03-22T09:58:41;33.40;;;17.00;;
48268;SDS011;34088;52.232;5.196;2024-03-22T10:03:32;32.45;;;16.67;;
48268;SDS011;34088;52.232;5.196;2024-03-22T10:08:23;30.45;;;16.35;;
48268;SDS011;34088;52.232;5.196;2024-03-22T10:13:13;28.87;;;15.83;;
48268;SDS011;34088;52.232;5.196;2024-03-22T10:18:04;24.57;;;15.03;;
48268;SDS011;34088;52.232;5.196;2024-03-22T10:22:55;27.23;;;14.63;;
48268;SDS011;34088;52.232;5.196;2024-03-22T10:25:23;21.52;;;13.75;;
48268;SDS011;34088;52.232;5.196;2024-03-22T10:27:50;24.25;;;14.05;;
48268;SDS011;34088;52.232;5.196;2024-03-22T10:32:42;30.63;;;14.95;;
48268;SDS011;34088;52.232;5.196;2024-03-22T10:35:11;28.20;;;14.35;;
48268;SDS011;34088;52.232;5.196;2024-03-22T10:37:38;29.10;;;15.60;;
48268;SDS011;34088;52.232;5.196;2024-03-22T10:42:36;25.52;;;14.18;;
48268;SDS011;34088;52.232;5.196;2024-03-22T10:45:02;25.23;;;14.75;;
48268;SDS011;34088;52.232;5.196;2024-03-22T10:47:29;24.17;;;14.02;;
48268;SDS011;34088;52.232;5.196;2024-03-22T10:50:05;27.50;;;15.70;;
48268;SDS011;34088;52.232;5.196;2024-03-22T10:52:33;28.92;;;15.30;;
48268;SDS011;34088;52.232;5.196;2024-03-22T10:55:05;28.33;;;15.18;;
48268;SDS011;34088;52.232;5.196;2024-03-22T10:57:32;27.73;;;14.20;;
48268;SDS011;34088;52.232;5.196;2024-03-22T11:00:03;27.27;;;14.38;;
48268;SDS011;34088;52.232;5.196;2024-03-22T11:02:34;25.63;;;13.98;;
48268;SDS011;34088;52.232;5.196;2024-03-22T11:07:29;28.37;;;14.13;;
48268;SDS011;34088;52.232;5.196;2024-03-22T11:10:00;22.88;;;13.02;;
48268;SDS011;34088;52.232;5.196;2024-03-22T11:12:28;28.20;;;14.23;;
48268;SDS011;34088;52.232;5.196;2024-03-22T11:14:58;25.13;;;14.35;;
48268;SDS011;34088;52.232;5.196;2024-03-22T11:19:50;20.10;;;11.80;;
48268;SDS011;34088;52.232;5.196;2024-03-22T11:22:16;18.08;;;11.70;;
48268;SDS011;34088;52.232;5.196;2024-03-22T11:27:06;22.80;;;12.53;;
48268;SDS011;34088;52.232;5.196;2024-03-22T11:31:57;19.27;;;12.10;;
48268;SDS011;34088;52.232;5.196;2024-03-22T11:36:48;18.30;;;11.90;;
48268;SDS011;34088;52.232;5.196;2024-03-22T11:39:15;16.58;;;12.13;;
48268;SDS011;34088;52.232;5.196;2024-03-22T11:44:06;18.85;;;11.38;;
48268;SDS011;34088;52.232;5.196;2024-03-22T11:48:57;21.23;;;12.75;;
48268;SDS011;34088;52.232;5.196;2024-03-22T11:51:23;18.30;;;11.95;;
48268;SDS011;34088;52.232;5.196;2024-03-22T11:56:19;22.92;;;13.82;;
48268;SDS011;34088;52.232;5.196;2024-03-22T12:01:10;22.25;;;13.40;;
48268;SDS011;34088;52.232;5.196;2024-03-22T12:03:37;26.20;;;14.93;;
48268;SDS011;34088;52.232;5.196;2024-03-22T12:08:28;27.55;;;15.80;;
48268;SDS011;34088;52.232;5.196;2024-03-22T12:13:19;24.60;;;15.37;;
48268;SDS011;34088;52.232;5.196;2024-03-22T12:18:09;32.27;;;16.83;;
48268;SDS011;34088;52.232;5.196;2024-03-22T12:23:00;31.17;;;16.83;;
48268;SDS011;34088;52.232;5.196;2024-03-22T12:25:25;28.88;;;17.15;;
48268;SDS011;34088;52.232;5.196;2024-03-22T12:30:15;38.53;;;18.67;;
48268;SDS011;34088;52.232;5.196;2024-03-22T12:35:06;33.35;;;16.52;;
48268;SDS011;34088;52.232;5.196;2024-03-22T12:37:33;31.85;;;16.40;;
48268;SDS011;34088;52.232;5.196;2024-03-22T12:42:23;32.60;;;16.33;;
48268;SDS011;34088;52.232;5.196;2024-03-22T12:47:14;26.50;;;15.23;;
48268;SDS011;34088;52.232;5.196;2024-03-22T12:52:05;25.70;;;15.23;;
48268;SDS011;34088;52.232;5.196;2024-03-22T12:56:55;28.47;;;15.63;;
48268;SDS011;34088;52.232;5.196;2024-03-22T13:01:46;27.25;;;16.15;;
48268;SDS011;34088;52.232;5.196;2024-03-22T13:06:37;36.47;;;16.25;;
48268;SDS011;34088;52.232;5.196;2024-03-22T13:11:29;29.42;;;15.45;;
48268;SDS011;34088;52.232;5.196;2024-03-22T13:13:56;27.45;;;16.55;;
48268;SDS011;34088;52.232;5.196;2024-03-22T13:18:48;33.53;;;17.60;;
48268;SDS011;34088;52.232;5.196;2024-03-22T13:23:38;26.13;;;15.60;;
48268;SDS011;34088;52.232;5.196;2024-03-22T13:28:29;30.38;;;16.67;;
48268;SDS011;34088;52.232;5.196;2024-03-22T13:33:24;31.23;;;17.52;;
48268;SDS011;34088;52.232;5.196;2024-03-22T13:38:15;28.77;;;14.90;;
48268;SDS011;34088;52.232;5.196;2024-03-22T13:40:41;29.45;;;15.25;;
48268;SDS011;34088;52.232;5.196;2024-03-22T13:45:32;32.80;;;15.10;;
48268;SDS011;34088;52.232;5.196;2024-03-22T13:50:23;28.70;;;13.77;;
48268;SDS011;34088;52.232;5.196;2024-03-22T13:55:13;23.90;;;13.13;;
48268;SDS011;34088;52.232;5.196;2024-03-22T14:00:04;25.65;;;11.90;;
48268;SDS011;34088;52.232;5.196;2024-03-22T14:02:33;25.42;;;11.55;;
48268;SDS011;34088;52.232;5.196;2024-03-22T14:07:23;22.58;;;11.63;;
48268;SDS011;34088;52.232;5.196;2024-03-22T14:12:14;23.60;;;11.07;;
48268;SDS011;34088;52.232;5.196;2024-03-22T14:17:05;22.17;;;9.32;;
48268;SDS011;34088;52.232;5.196;2024-03-22T14:21:55;24.10;;;10.17;;
48268;SDS011;34088;52.232;5.196;2024-03-22T14:24:20;23.87;;;10.03;;
48268;SDS011;34088;52.232;5.196;2024-03-22T14:29:11;24.20;;;9.63;;
48268;SDS011;34088;52.232;5.196;2024-03-22T14:31:37;20.58;;;8.77;;
48268;SDS011;34088;52.232;5.196;2024-03-22T14:36:31;20.38;;;8.80;;
48268;SDS011;34088;52.232;5.196;2024-03-22T14:41:21;24.10;;;9.20;;
48268;SDS011;34088;52.232;5.196;2024-03-22T14:46:11;20.45;;;6.18;;
48268;SDS011;34088;52.232;5.196;2024-03-22T14:51:02;23.23;;;6.50;;
48268;SDS011;34088;52.232;5.196;2024-03-22T14:55:53;27.23;;;6.90;;
48268;SDS011;34088;52.232;5.196;2024-03-22T14:58:23;24.27;;;7.20;;
48268;SDS011;34088;52.232;5.196;2024-03-22T15:03:17;27.75;;;8.23;;
48268;SDS011;34088;52.232;5.196;2024-03-22T15:08:07;23.43;;;7.57;;
48268;SDS011;34088;52.232;5.196;2024-03-22T15:10:33;22.17;;;8.23;;
48268;SDS011;34088;52.232;5.196;2024-03-22T15:12:58;28.48;;;8.10;;
48268;SDS011;34088;52.232;5.196;2024-03-22T15:17:49;26.95;;;7.20;;
48268;SDS011;34088;52.232;5.196;2024-03-22T15:22:39;27.17;;;7.13;;
48268;SDS011;34088;52.232;5.196;2024-03-22T15:25:05;29.77;;;7.20;;
48268;SDS011;34088;52.232;5.196;2024-03-22T15:29:56;30.25;;;6.35;;
48268;SDS011;34088;52.232;5.196;2024-03-22T15:34:48;33.28;;;7.30;;
48268;SDS011;34088;52.232;5.196;2024-03-22T15:39:39;30.97;;;7.30;;
48268;SDS011;34088;52.232;5.196;2024-03-22T15:44:29;33.10;;;9.07;;
48268;SDS011;34088;52.232;5.196;2024-03-22T15:49:24;35.00;;;8.68;;
48268;SDS011;34088;52.232;5.196;2024-03-22T15:54:15;35.93;;;9.03;;
48268;SDS011;34088;52.232;5.196;2024-03-22T15:56:40;36.53;;;6.83;;
48268;SDS011;34088;52.232;5.196;2024-03-22T16:01:32;31.02;;;7.63;;
48268;SDS011;34088;52.232;5.196;2024-03-22T16:06:22;31.40;;;6.17;;
48268;SDS011;34088;52.232;5.196;2024-03-22T16:11:12;32.75;;;6.97;;
48268;SDS011;34088;52.232;5.196;2024-03-22T16:16:03;27.35;;;6.60;;
48268;SDS011;34088;52.232;5.196;2024-03-22T16:20:54;27.67;;;6.32;;
48268;SDS011;34088;52.232;5.196;2024-03-22T16:25:45;30.58;;;6.20;;
48268;SDS011;34088;52.232;5.196;2024-03-22T16:30:36;29.58;;;5.90;;
48268;SDS011;34088;52.232;5.196;2024-03-22T16:35:27;32.00;;;6.18;;
48268;SDS011;34088;52.232;5.196;2024-03-22T16:40:21;27.15;;;6.28;;
48268;SDS011;34088;52.232;5.196;2024-03-22T16:42:47;30.08;;;6.55;;
48268;SDS011;34088;52.232;5.196;2024-03-22T16:45:13;31.05;;;6.03;;
48268;SDS011;34088;52.232;5.196;2024-03-22T16:47:39;35.65;;;6.78;;
48268;SDS011;34088;52.232;5.196;2024-03-22T16:50:05;36.05;;;6.65;;
48268;SDS011;34088;52.232;5.196;2024-03-22T16:52:32;32.97;;;6.18;;
48268;SDS011;34088;52.232;5.196;2024-03-22T16:57:24;34.67;;;6.87;;
48268;SDS011;34088;52.232;5.196;2024-03-22T16:59:50;34.33;;;5.57;;
48268;SDS011;34088;52.232;5.196;2024-03-22T17:02:15;29.95;;;5.65;;
48268;SDS011;34088;52.232;5.196;2024-03-22T17:07:06;38.40;;;6.97;;
48268;SDS011;34088;52.232;5.196;2024-03-22T17:11:56;30.43;;;6.50;;
48268;SDS011;34088;52.232;5.196;2024-03-22T17:14:21;38.53;;;7.27;;
48268;SDS011;34088;52.232;5.196;2024-03-22T17:16:47;35.03;;;7.72;;
48268;SDS011;34088;52.232;5.196;2024-03-22T17:19:15;34.35;;;6.93;;
48268;SDS011;34088;52.232;5.196;2024-03-22T17:21:41;32.05;;;7.15;;
48268;SDS011;34088;52.232;5.196;2024-03-22T17:24:07;40.72;;;6.82;;
48268;SDS011;34088;52.232;5.196;2024-03-22T17:26:32;38.45;;;7.80;;
48268;SDS011;34088;52.232;5.196;2024-03-22T17:31:23;35.15;;;7.35;;
48268;SDS011;34088;52.232;5.196;2024-03-22T17:33:50;35.72;;;7.53;;
48268;SDS011;34088;52.232;5.196;2024-03-22T17:36:15;41.88;;;7.70;;
48268;SDS011;34088;52.232;5.196;2024-03-22T17:38:40;35.17;;;7.97;;
48268;SDS011;34088;52.232;5.196;2024-03-22T17:43:31;33.83;;;8.23;;
48268;SDS011;34088;52.232;5.196;2024-03-22T17:45:57;42.03;;;8.87;;
48268;SDS011;34088;52.232;5.196;2024-03-22T17:48:25;36.20;;;6.88;;
48268;SDS011;34088;52.232;5.196;2024-03-22T17:50:51;41.47;;;7.88;;
48268;SDS011;34088;52.232;5.196;2024-03-22T17:53:16;39.80;;;7.63;;
48268;SDS011;34088;52.232;5.196;2024-03-22T17:55:42;44.00;;;11.02;;
48268;SDS011;34088;52.232;5.196;2024-03-22T18:00:32;36.50;;;11.13;;
48268;SDS011;34088;52.232;5.196;2024-03-22T18:02:58;44.30;;;12.43;;
48268;SDS011;34088;52.232;5.196;2024-03-22T18:05:23;43.37;;;11.63;;
48268;SDS011;34088;52.232;5.196;2024-03-22T18:07:48;42.20;;;11.05;;
48268;SDS011;34088;52.232;5.196;2024-03-22T18:12:40;42.30;;;11.57;;
48268;SDS011;34088;52.232;5.196;2024-03-22T18:15:05;40.33;;;11.23;;
48268;SDS011;34088;52.232;5.196;2024-03-22T18:17:33;41.40;;;11.65;;
48268;SDS011;34088;52.232;5.196;2024-03-22T18:19:59;44.88;;;10.48;;
48268;SDS011;34088;52.232;5.196;2024-03-22T18:22:24;37.65;;;11.25;;
48268;SDS011;34088;52.232;5.196;2024-03-22T18:27:14;63.93;;;20.10;;
48268;SDS011;34088;52.232;5.196;2024-03-22T18:32:05;38.08;;;11.20;;
48268;SDS011;34088;52.232;5.196;2024-03-22T18:36:56;43.30;;;12.77;;
48268;SDS011;34088;52.232;5.196;2024-03-22T18:41:47;48.03;;;10.90;;
48268;SDS011;34088;52.232;5.196;2024-03-22T18:44:12;36.70;;;9.37;;
48268;SDS011;34088;52.232;5.196;2024-03-22T18:46:37;41.83;;;9.97;;
48268;SDS011;34088;52.232;5.196;2024-03-22T18:51:28;35.38;;;10.43;;
48268;SDS011;34088;52.232;5.196;2024-03-22T18:53:54;34.40;;;10.57;;
48268;SDS011;34088;52.232;5.196;2024-03-22T18:56:22;48.35;;;12.57;;
48268;SDS011;34088;52.232;5.196;2024-03-22T18:58:48;42.05;;;15.82;;
48268;SDS011;34088;52.232;5.196;2024-03-22T19:01:13;48.35;;;15.68;;
48268;SDS011;34088;52.232;5.196;2024-03-22T19:06:04;41.30;;;11.83;;
48268;SDS011;34088;52.232;5.196;2024-03-22T19:08:29;39.63;;;11.77;;
48268;SDS011;34088;52.232;5.196;2024-03-22T19:10:54;39.00;;;11.27;;
48268;SDS011;34088;52.232;5.196;2024-03-22T19:15:54;43.90;;;11.07;;
48268;SDS011;34088;52.232;5.196;2024-03-22T19:18:20;47.08;;;12.98;;
48268;SDS011;34088;52.232;5.196;2024-03-22T19:23:12;41.85;;;14.55;;
48268;SDS011;34088;52.232;5.196;2024-03-22T19:28:03;41.25;;;16.40;;
48268;SDS011;34088;52.232;5.196;2024-03-22T19:30:28;56.78;;;16.73;;
48268;SDS011;34088;52.232;5.196;2024-03-22T19:32:53;43.50;;;15.70;;
48268;SDS011;34088;52.232;5.196;2024-03-22T19:35:19;48.83;;;14.07;;
48268;SDS011;34088;52.232;5.196;2024-03-22T19:37:44;49.20;;;15.10;;
48268;SDS011;34088;52.232;5.196;2024-03-22T19:40:09;46.47;;;14.57;;
48268;SDS011;34088;52.232;5.196;2024-03-22T19:45:00;51.70;;;15.02;;
48268;SDS011;34088;52.232;5.196;2024-03-22T19:47:26;47.47;;;13.63;;
48268;SDS011;34088;52.232;5.196;2024-03-22T19:49:51;46.90;;;13.55;;
48268;SDS011;34088;52.232;5.196;2024-03-22T19:52:16;38.43;;;12.90;;
48268;SDS011;34088;52.232;5.196;2024-03-22T19:54:42;42.97;;;12.93;;
48268;SDS011;34088;52.232;5.196;2024-03-22T19:57:07;44.65;;;13.25;;
48268;SDS011;34088;52.232;5.196;2024-03-22T20:01:57;43.17;;;13.80;;
48268;SDS011;34088;52.232;5.196;2024-03-22T20:04:23;41.25;;;14.90;;
48268;SDS011;34088;52.232;5.196;2024-03-22T20:06:48;44.25;;;14.93;;
48268;SDS011;34088;52.232;5.196;2024-03-22T20:09:13;45.23;;;13.50;;
48268;SDS011;34088;52.232;5.196;2024-03-22T20:11:40;40.08;;;13.98;;
48268;SDS011;34088;52.232;5.196;2024-03-22T20:14:05;47.03;;;13.57;;
48268;SDS011;34088;52.232;5.196;2024-03-22T20:16:31;42.00;;;12.65;;
48268;SDS011;34088;52.232;5.196;2024-03-22T20:18:57;41.07;;;13.00;;
48268;SDS011;34088;52.232;5.196;2024-03-22T20:21:22;40.33;;;12.57;;
48268;SDS011;34088;52.232;5.196;2024-03-22T20:23:47;38.87;;;13.23;;
48268;SDS011;34088;52.232;5.196;2024-03-22T20:26:12;45.63;;;17.40;;
48268;SDS011;34088;52.232;5.196;2024-03-22T20:28:38;46.43;;;16.10;;
48268;SDS011;34088;52.232;5.196;2024-03-22T20:31:03;49.13;;;14.97;;
48268;SDS011;34088;52.232;5.196;2024-03-22T20:33:28;47.43;;;14.03;;
